O Brien, Texas
Current Conditions -  °F | °C
As of 3:58 PM on Tuesday 21 Oct 2014 (Local Time) from KDYS Reporting Station
Few Clouds Few Clouds  
Wind Chill: 81°   Ceiling: Unl
Heat Index: 81°   Visibility: 10mi
Dew Point: 52°   Wind: 10mph
Humidity: 37%   Direction: 120°ESE
Pressure: 30.02"   Gusts: NA
Location:  33.3819°N, 99.8437°W
Report Text: KDYS 212058Z AUTO 12009KT 10SM FEW065 27/11 A3002 RMK AO2 SLP132 T02700112 57022
Loading
Personal Weather Stations






























Interactive Weather Map
Tropical Storm Tracking
New forecast layout! Learn more

10-Day Weather Forecast

Advertisements
Track Severe Weather on mobile